sensor_id;sensor_type;location;lat;lon;timestamp;pressure;altitude;pressure_sealevel;temperature;humidity
73151;BME280;61354;50.758;6.106;2023-08-24T00:00:40;99363.50;;;19.04;92.75
73151;BME280;61354;50.758;6.106;2023-08-24T00:03:08;99371.09;;;19.07;93.59
73151;BME280;61354;50.758;6.106;2023-08-24T00:05:37;99358.25;;;19.03;92.53
73151;BME280;61354;50.758;6.106;2023-08-24T00:08:06;99349.88;;;18.96;92.38
73151;BME280;61354;50.758;6.106;2023-08-24T00:10:31;99357.44;;;19.06;91.79
73151;BME280;61354;50.758;6.106;2023-08-24T00:12:58;99362.28;;;19.05;92.72
73151;BME280;61354;50.758;6.106;2023-08-24T00:15:23;99356.66;;;19.05;92.82
73151;BME280;61354;50.758;6.106;2023-08-24T00:17:49;99350.63;;;19.03;92.65
73151;BME280;61354;50.758;6.106;2023-08-24T00:20:18;99353.09;;;18.94;92.98
73151;BME280;61354;50.758;6.106;2023-08-24T00:22:45;99338.31;;;18.76;92.23
73151;BME280;61354;50.758;6.106;2023-08-24T00:25:12;99338.22;;;18.90;93.46
73151;BME280;61354;50.758;6.106;2023-08-24T00:27:38;99339.88;;;18.84;93.83
73151;BME280;61354;50.758;6.106;2023-08-24T00:30:05;99328.59;;;18.87;93.15
73151;BME280;61354;50.758;6.106;2023-08-24T00:32:35;99321.78;;;18.85;92.75
73151;BME280;61354;50.758;6.106;2023-08-24T00:35:05;99325.84;;;18.77;92.63
73151;BME280;61354;50.758;6.106;2023-08-24T00:37:32;99329.47;;;18.67;92.98
73151;BME280;61354;50.758;6.106;2023-08-24T00:40:01;99335.94;;;18.49;93.95
73151;BME280;61354;50.758;6.106;2023-08-24T00:42:29;99335.94;;;18.56;95.27
73151;BME280;61354;50.758;6.106;2023-08-24T00:44:55;99332.75;;;18.54;95.90
73151;BME280;61354;50.758;6.106;2023-08-24T00:47:21;99311.44;;;18.53;95.59
73151;BME280;61354;50.758;6.106;2023-08-24T00:49:47;99311.84;;;18.55;95.14
73151;BME280;61354;50.758;6.106;2023-08-24T00:52:13;99320.25;;;18.62;94.11
73151;BME280;61354;50.758;6.106;2023-08-24T00:54:41;99314.22;;;18.60;93.59
73151;BME280;61354;50.758;6.106;2023-08-24T00:57:07;99312.63;;;18.59;93.82
73151;BME280;61354;50.758;6.106;2023-08-24T00:59:36;99301.81;;;18.54;94.83
73151;BME280;61354;50.758;6.106;2023-08-24T01:02:02;99297.00;;;18.44;94.90
73151;BME280;61354;50.758;6.106;2023-08-24T01:04:27;99299.00;;;18.47;94.91
73151;BME280;61354;50.758;6.106;2023-08-24T01:06:53;99297.41;;;18.43;96.41
73151;BME280;61354;50.758;6.106;2023-08-24T01:09:20;99305.44;;;18.37;97.31
73151;BME280;61354;50.758;6.106;2023-08-24T01:11:59;99301.84;;;18.40;96.43
73151;BME280;61354;50.758;6.106;2023-08-24T01:17:30;99311.91;;;18.30;97.72
73151;BME280;61354;50.758;6.106;2023-08-24T01:19:57;99307.94;;;18.10;99.06
73151;BME280;61354;50.758;6.106;2023-08-24T01:27:33;99286.28;;;18.00;100.00
73151;BME280;61354;50.758;6.106;2023-08-24T01:30:01;99279.00;;;18.24;99.14
73151;BME280;61354;50.758;6.106;2023-08-24T01:32:30;99273.38;;;18.24;98.29
73151;BME280;61354;50.758;6.106;2023-08-24T01:34:56;99269.38;;;18.25;98.46
73151;BME280;61354;50.758;6.106;2023-08-24T01:37:22;99268.16;;;18.26;98.27
73151;BME280;61354;50.758;6.106;2023-08-24T01:40:00;99266.97;;;18.23;98.13
73151;BME280;61354;50.758;6.106;2023-08-24T01:43:07;99261.38;;;18.09;97.46
73151;BME280;61354;50.758;6.106;2023-08-24T01:45:35;99256.56;;;18.09;98.28
73151;BME280;61354;50.758;6.106;2023-08-24T01:48:02;99250.59;;;17.97;99.19
73151;BME280;61354;50.758;6.106;2023-08-24T01:50:29;99251.75;;;17.99;98.93
73151;BME280;61354;50.758;6.106;2023-08-24T01:52:55;99254.16;;;18.08;99.34
73151;BME280;61354;50.758;6.106;2023-08-24T01:55:21;99249.38;;;17.98;98.82
73151;BME280;61354;50.758;6.106;2023-08-24T01:57:48;99249.00;;;17.96;99.98
73151;BME280;61354;50.758;6.106;2023-08-24T02:00:13;99251.38;;;17.97;100.00
73151;BME280;61354;50.758;6.106;2023-08-24T02:02:39;99246.13;;;18.06;100.00
73151;BME280;61354;50.758;6.106;2023-08-24T02:05:05;99248.56;;;17.97;100.00
73151;BME280;61354;50.758;6.106;2023-08-24T02:07:31;99242.94;;;17.97;100.00
73151;BME280;61354;50.758;6.106;2023-08-24T02:20:17;99244.13;;;18.07;100.00
73151;BME280;61354;50.758;6.106;2023-08-24T02:22:43;99256.13;;;18.22;100.00
73151;BME280;61354;50.758;6.106;2023-08-24T02:25:09;99250.88;;;18.31;100.00
73151;BME280;61354;50.758;6.106;2023-08-24T02:27:35;99246.84;;;18.35;100.00
73151;BME280;61354;50.758;6.106;2023-08-24T02:30:00;99252.47;;;18.32;100.00
73151;BME280;61354;50.758;6.106;2023-08-24T02:32:26;99242.00;;;18.32;100.00
73151;BME280;61354;50.758;6.106;2023-08-24T02:34:51;99238.38;;;18.39;100.00
73151;BME280;61354;50.758;6.106;2023-08-24T02:37:17;99229.16;;;18.42;100.00
73151;BME280;61354;50.758;6.106;2023-08-24T02:39:43;99229.53;;;18.37;100.00
73151;BME280;61354;50.758;6.106;2023-08-24T02:42:09;99246.06;;;18.28;100.00
73151;BME280;61354;50.758;6.106;2023-08-24T02:44:34;99252.88;;;18.34;100.00
73151;BME280;61354;50.758;6.106;2023-08-24T02:47:00;99265.28;;;18.40;100.00
73151;BME280;61354;50.758;6.106;2023-08-24T02:49:25;99253.25;;;18.36;100.00
73151;BME280;61354;50.758;6.106;2023-08-24T02:51:51;99259.69;;;18.33;100.00
73151;BME280;61354;50.758;6.106;2023-08-24T02:54:16;99267.31;;;18.32;100.00
73151;BME280;61354;50.758;6.106;2023-08-24T02:56:42;99274.13;;;18.42;100.00
73151;BME280;61354;50.758;6.106;2023-08-24T02:59:07;99282.13;;;18.51;100.00
73151;BME280;61354;50.758;6.106;2023-08-24T03:01:33;99280.53;;;18.46;100.00
73151;BME280;61354;50.758;6.106;2023-08-24T03:03:59;99289.78;;;18.43;100.00
73151;BME280;61354;50.758;6.106;2023-08-24T03:06:24;99298.59;;;18.45;100.00
73151;BME280;61354;50.758;6.106;2023-08-24T03:08:50;99316.66;;;18.51;100.00
73151;BME280;61354;50.758;6.106;2023-08-24T03:11:16;99331.53;;;18.55;100.00
73151;BME280;61354;50.758;6.106;2023-08-24T03:13:41;99330.72;;;18.51;100.00
73151;BME280;61354;50.758;6.106;2023-08-24T03:16:08;99320.72;;;18.43;100.00
73151;BME280;61354;50.758;6.106;2023-08-24T03:18:33;99321.09;;;18.45;100.00
73151;BME280;61354;50.758;6.106;2023-08-24T03:20:59;99312.63;;;18.52;100.00
73151;BME280;61354;50.758;6.106;2023-08-24T03:23:25;99305.81;;;18.53;100.00
73151;BME280;61354;50.758;6.106;2023-08-24T03:25:51;99294.94;;;18.62;100.00
73151;BME280;61354;50.758;6.106;2023-08-24T03:28:17;99305.34;;;18.69;100.00
73151;BME280;61354;50.758;6.106;2023-08-24T03:30:51;99304.13;;;18.74;100.00
73151;BME280;61354;50.758;6.106;2023-08-24T03:33:17;99300.50;;;18.80;100.00
73151;BME280;61354;50.758;6.106;2023-08-24T03:35:44;99302.53;;;18.80;100.00
73151;BME280;61354;50.758;6.106;2023-08-24T03:38:10;99300.50;;;18.80;100.00
73151;BME280;61354;50.758;6.106;2023-08-24T03:40:36;99300.47;;;18.87;100.00
73151;BME280;61354;50.758;6.106;2023-08-24T03:43:02;99291.59;;;18.93;100.00
73151;BME280;61354;50.758;6.106;2023-08-24T03:45:28;99281.91;;;18.97;100.00
73151;BME280;61354;50.758;6.106;2023-08-24T03:47:54;99273.00;;;19.06;100.00
73151;BME280;61354;50.758;6.106;2023-08-24T03:50:20;99277.03;;;19.08;100.00
73151;BME280;61354;50.758;6.106;2023-08-24T03:52:49;99278.63;;;19.09;100.00
73151;BME280;61354;50.758;6.106;2023-08-24T03:55:15;99274.25;;;19.05;100.00
73151;BME280;61354;50.758;6.106;2023-08-24T03:57:41;99263.38;;;19.03;100.00
73151;BME280;61354;50.758;6.106;2023-08-24T04:00:07;99243.28;;;19.01;100.00
73151;BME280;61354;50.758;6.106;2023-08-24T04:02:42;99236.06;;;19.00;100.00
73151;BME280;61354;50.758;6.106;2023-08-24T04:05:08;99219.72;;;18.81;100.00
73151;BME280;61354;50.758;6.106;2023-08-24T04:07:34;99210.81;;;18.86;100.00
73151;BME280;61354;50.758;6.106;2023-08-24T04:10:02;99202.00;;;18.84;100.00
73151;BME280;61354;50.758;6.106;2023-08-24T04:12:31;99196.44;;;18.77;100.00
73151;BME280;61354;50.758;6.106;2023-08-24T04:14:56;99193.25;;;18.68;100.00
73151;BME280;61354;50.758;6.106;2023-08-24T04:17:23;99179.63;;;18.59;100.00
73151;BME280;61354;50.758;6.106;2023-08-24T04:19:49;99168.00;;;18.53;100.00
73151;BME280;61354;50.758;6.106;2023-08-24T04:22:15;99159.16;;;18.58;100.00
73151;BME280;61354;50.758;6.106;2023-08-24T04:24:40;99162.44;;;18.50;100.00
73151;BME280;61354;50.758;6.106;2023-08-24T04:27:06;99162.44;;;18.50;100.00
73151;BME280;61354;50.758;6.106;2023-08-24T04:29:32;99156.03;;;18.46;100.00
73151;BME280;61354;50.758;6.106;2023-08-24T04:31:57;99164.03;;;18.47;100.00
73151;BME280;61354;50.758;6.106;2023-08-24T04:34:23;99161.25;;;18.44;100.00
73151;BME280;61354;50.758;6.106;2023-08-24T04:36:48;99156.75;;;18.53;100.00
73151;BME280;61354;50.758;6.106;2023-08-24T04:39:14;99140.75;;;18.47;100.00
73151;BME280;61354;50.758;6.106;2023-08-24T04:41:39;99137.94;;;18.43;100.00
73151;BME280;61354;50.758;6.106;2023-08-24T04:44:05;99143.16;;;18.45;100.00
73151;BME280;61354;50.758;6.106;2023-08-24T04:46:33;99131.06;;;18.51;100.00
73151;BME280;61354;50.758;6.106;2023-08-24T04:48:59;99131.16;;;18.37;100.00
73151;BME280;61354;50.758;6.106;2023-08-24T04:51:24;99121.84;;;18.51;100.00
73151;BME280;61354;50.758;6.106;2023-08-24T04:53:50;99113.41;;;18.51;100.00
73151;BME280;61354;50.758;6.106;2023-08-24T04:56:15;99116.25;;;18.44;100.00
73151;BME280;61354;50.758;6.106;2023-08-24T04:58:57;99113.41;;;18.51;100.00
73151;BME280;61354;50.758;6.106;2023-08-24T05:01:27;99120.63;;;18.52;100.00
73151;BME280;61354;50.758;6.106;2023-08-24T05:03:53;99122.63;;;18.55;100.00
73151;BME280;61354;50.758;6.106;2023-08-24T05:06:20;99130.28;;;18.51;100.00
73151;BME280;61354;50.758;6.106;2023-08-24T05:08:45;99132.66;;;18.52;100.00
73151;BME280;61354;50.758;6.106;2023-08-24T05:11:12;99136.69;;;18.55;100.00
73151;BME280;61354;50.758;6.106;2023-08-24T05:13:40;99129.84;;;18.56;100.00
73151;BME280;61354;50.758;6.106;2023-08-24T05:16:05;99132.66;;;18.56;100.00
73151;BME280;61354;50.758;6.106;2023-08-24T05:18:31;99135.81;;;18.61;100.00
73151;BME280;61354;50.758;6.106;2023-08-24T05:20:57;99130.59;;;18.63;100.00
73151;BME280;61354;50.758;6.106;2023-08-24T05:23:37;99135.78;;;18.69;100.00
73151;BME280;61354;50.758;6.106;2023-08-24T05:26:03;99132.56;;;18.70;100.00
73151;BME280;61354;50.758;6.106;2023-08-24T05:28:30;99129.78;;;18.67;100.00
73151;BME280;61354;50.758;6.106;2023-08-24T05:30:56;99127.78;;;18.63;100.00
73151;BME280;61354;50.758;6.106;2023-08-24T05:33:23;99136.59;;;18.66;100.00
73151;BME280;61354;50.758;6.106;2023-08-24T05:35:50;99130.16;;;18.65;100.00
73151;BME280;61354;50.758;6.106;2023-08-24T05:38:16;99130.19;;;18.61;100.00
73151;BME280;61354;50.758;6.106;2023-08-24T05:40:42;99120.56;;;18.62;100.00
73151;BME280;61354;50.758;6.106;2023-08-24T05:43:11;99120.56;;;18.62;100.00
73151;BME280;61354;50.758;6.106;2023-08-24T05:45:36;99111.72;;;18.60;100.00
73151;BME280;61354;50.758;6.106;2023-08-24T05:48:04;99109.34;;;18.55;100.00
73151;BME280;61354;50.758;6.106;2023-08-24T05:50:30;99103.31;;;18.53;100.00
73151;BME280;61354;50.758;6.106;2023-08-24T05:52:56;99097.28;;;18.58;100.00
73151;BME280;61354;50.758;6.106;2023-08-24T05:55:22;99081.59;;;18.61;100.00
73151;BME280;61354;50.758;6.106;2023-08-24T05:57:47;99081.19;;;18.62;100.00
73151;BME280;61354;50.758;6.106;2023-08-24T06:00:13;99069.09;;;18.66;100.00
73151;BME280;61354;50.758;6.106;2023-08-24T06:02:39;99079.56;;;18.61;100.00
73151;BME280;61354;50.758;6.106;2023-08-24T06:05:06;99066.66;;;18.68;100.00
73151;BME280;61354;50.758;6.106;2023-08-24T06:07:32;99066.66;;;18.68;100.00
73151;BME280;61354;50.758;6.106;2023-08-24T06:09:58;99065.03;;;18.74;100.00
73151;BME280;61354;50.758;6.106;2023-08-24T06:12:24;99068.19;;;18.83;100.00
73151;BME280;61354;50.758;6.106;2023-08-24T06:14:50;99053.66;;;18.88;100.00
73151;BME280;61354;50.758;6.106;2023-08-24T06:17:15;99056.75;;;19.01;100.00
73151;BME280;61354;50.758;6.106;2023-08-24T06:19:41;99051.06;;;19.08;100.00
73151;BME280;61354;50.758;6.106;2023-08-24T06:22:07;99047.75;;;19.17;100.00
73151;BME280;61354;50.758;6.106;2023-08-24T06:24:32;99043.66;;;19.25;100.00
73151;BME280;61354;50.758;6.106;2023-08-24T06:26:58;99041.97;;;19.31;100.00
73151;BME280;61354;50.758;6.106;2023-08-24T06:29:23;99035.50;;;19.34;100.00
73151;BME280;61354;50.758;6.106;2023-08-24T06:31:49;99019.38;;;19.38;100.00
73151;BME280;61354;50.758;6.106;2023-08-24T06:34:15;99013.72;;;19.38;100.00
73151;BME280;61354;50.758;6.106;2023-08-24T06:36:40;99017.66;;;19.44;100.00
73151;BME280;61354;50.758;6.106;2023-08-24T06:39:06;99007.06;;;19.55;100.00
73151;BME280;61354;50.758;6.106;2023-08-24T06:41:35;99002.97;;;19.64;100.00
73151;BME280;61354;50.758;6.106;2023-08-24T06:44:01;99010.59;;;19.67;100.00
73151;BME280;61354;50.758;6.106;2023-08-24T06:46:27;99005.72;;;19.71;100.00
73151;BME280;61354;50.758;6.106;2023-08-24T06:48:53;99003.28;;;19.69;100.00
73151;BME280;61354;50.758;6.106;2023-08-24T06:51:18;99005.97;;;19.80;100.00
73151;BME280;61354;50.758;6.106;2023-08-24T06:53:44;99008.31;;;19.85;100.00
73151;BME280;61354;50.758;6.106;2023-08-24T06:56:13;99014.19;;;19.98;100.00
73151;BME280;61354;50.758;6.106;2023-08-24T06:58:39;99015.34;;;20.00;100.00
73151;BME280;61354;50.758;6.106;2023-08-24T07:01:05;99013.59;;;20.10;100.00
73151;BME280;61354;50.758;6.106;2023-08-24T07:03:31;99003.84;;;20.15;100.00
73151;BME280;61354;50.758;6.106;2023-08-24T07:05:59;98994.13;;;20.19;100.00
73151;BME280;61354;50.758;6.106;2023-08-24T07:08:24;98989.66;;;20.22;100.00
73151;BME280;61354;50.758;6.106;2023-08-24T07:10:50;98985.84;;;20.32;100.00
73151;BME280;61354;50.758;6.106;2023-08-24T07:13:16;98995.75;;;20.44;100.00
73151;BME280;61354;50.758;6.106;2023-08-24T07:15:42;98992.88;;;20.47;100.00
73151;BME280;61354;50.758;6.106;2023-08-24T07:18:08;98997.50;;;20.61;100.00
73151;BME280;61354;50.758;6.106;2023-08-24T07:20:34;98997.44;;;20.65;100.00
73151;BME280;61354;50.758;6.106;2023-08-24T07:23:01;98992.78;;;20.78;100.00
73151;BME280;61354;50.758;6.106;2023-08-24T07:25:26;98991.91;;;20.81;100.00
73151;BME280;61354;50.758;6.106;2023-08-24T07:27:56;98990.53;;;20.89;100.00
73151;BME280;61354;50.758;6.106;2023-08-24T07:30:25;98987.16;;;20.98;100.00
73151;BME280;61354;50.758;6.106;2023-08-24T07:32:55;98985.38;;;21.07;100.00
73151;BME280;61354;50.758;6.106;2023-08-24T07:35:21;98986.66;;;21.23;100.00
73151;BME280;61354;50.758;6.106;2023-08-24T07:37:53;98989.00;;;21.28;100.00
73151;BME280;61354;50.758;6.106;2023-08-24T07:40:19;98994.91;;;21.37;100.00
73151;BME280;61354;50.758;6.106;2023-08-24T07:42:48;98999.97;;;21.46;100.00
73151;BME280;61354;50.758;6.106;2023-08-24T07:45:16;99001.34;;;21.57;100.00
73151;BME280;61354;50.758;6.106;2023-08-24T07:47:43;98997.13;;;21.66;100.00
73151;BME280;61354;50.758;6.106;2023-08-24T07:50:09;98990.81;;;21.78;100.00
73151;BME280;61354;50.758;6.106;2023-08-24T07:52:37;98982.88;;;21.89;100.00
73151;BME280;61354;50.758;6.106;2023-08-24T07:55:03;98982.19;;;22.01;100.00
73151;BME280;61354;50.758;6.106;2023-08-24T07:57:30;98979.19;;;22.08;100.00
73151;BME280;61354;50.758;6.106;2023-08-24T07:59:57;98981.44;;;22.17;100.00
73151;BME280;61354;50.758;6.106;2023-08-24T08:02:23;98973.69;;;22.21;100.00
73151;BME280;61354;50.758;6.106;2023-08-24T08:04:49;98973.94;;;22.27;100.00
73151;BME280;61354;50.758;6.106;2023-08-24T08:07:14;98979.78;;;22.36;100.00
73151;BME280;61354;50.758;6.106;2023-08-24T08:09:40;98979.59;;;22.43;100.00
73151;BME280;61354;50.758;6.106;2023-08-24T08:12:06;98978.38;;;22.44;100.00
73151;BME280;61354;50.758;6.106;2023-08-24T08:14:31;98970.22;;;22.46;100.00
73151;BME280;61354;50.758;6.106;2023-08-24T08:16:57;98975.19;;;22.42;100.00
73151;BME280;61354;50.758;6.106;2023-08-24T08:19:22;98965.38;;;22.47;99.00
73151;BME280;61354;50.758;6.106;2023-08-24T08:21:50;98972.00;;;22.56;97.71
73151;BME280;61354;50.758;6.106;2023-08-24T08:24:16;98965.44;;;22.59;98.06
73151;BME280;61354;50.758;6.106;2023-08-24T08:26:42;98970.38;;;22.72;100.00
73151;BME280;61354;50.758;6.106;2023-08-24T08:29:07;98964.91;;;22.81;100.00
73151;BME280;61354;50.758;6.106;2023-08-24T08:31:33;98959.31;;;22.94;97.52
73151;BME280;61354;50.758;6.106;2023-08-24T08:33:58;98958.03;;;23.11;94.17
73151;BME280;61354;50.758;6.106;2023-08-24T08:36:24;98954.63;;;23.16;96.40
73151;BME280;61354;50.758;6.106;2023-08-24T08:38:50;98951.94;;;23.25;94.64
73151;BME280;61354;50.758;6.106;2023-08-24T08:41:17;98950.50;;;23.33;96.29
73151;BME280;61354;50.758;6.106;2023-08-24T08:43:47;98955.31;;;23.49;95.86
73151;BME280;61354;50.758;6.106;2023-08-24T08:46:13;98946.22;;;23.54;93.32
73151;BME280;61354;50.758;6.106;2023-08-24T08:48:41;98938.00;;;23.60;95.98
73151;BME280;61354;50.758;6.106;2023-08-24T08:51:07;98931.31;;;23.67;95.33
73151;BME280;61354;50.758;6.106;2023-08-24T08:53:33;98919.66;;;23.77;95.05
73151;BME280;61354;50.758;6.106;2023-08-24T08:56:00;98914.41;;;23.89;95.51
73151;BME280;61354;50.758;6.106;2023-08-24T08:58:31;98911.72;;;23.98;92.02
73151;BME280;61354;50.758;6.106;2023-08-24T09:00:57;98907.84;;;24.04;91.98
73151;BME280;61354;50.758;6.106;2023-08-24T09:03:26;98892.53;;;24.15;91.44
73151;BME280;61354;50.758;6.106;2023-08-24T09:05:53;98887.25;;;24.26;91.10
73151;BME280;61354;50.758;6.106;2023-08-24T09:08:19;98868.88;;;24.43;88.31
73151;BME280;61354;50.758;6.106;2023-08-24T09:10:45;98866.13;;;24.52;92.24
73151;BME280;61354;50.758;6.106;2023-08-24T09:13:11;98861.53;;;24.55;90.30
73151;BME280;61354;50.758;6.106;2023-08-24T09:15:37;98851.16;;;24.74;88.20
73151;BME280;61354;50.758;6.106;2023-08-24T09:18:03;98860.31;;;24.78;85.65
73151;BME280;61354;50.758;6.106;2023-08-24T09:20:29;98854.66;;;24.78;84.97
73151;BME280;61354;50.758;6.106;2023-08-24T09:22:55;98866.66;;;24.82;85.62
73151;BME280;61354;50.758;6.106;2023-08-24T09:25:23;98867.00;;;24.84;84.39
73151;BME280;61354;50.758;6.106;2023-08-24T09:30:29;98899.31;;;24.99;83.63
73151;BME280;61354;50.758;6.106;2023-08-24T09:32:54;98910.41;;;25.07;83.84
73151;BME280;61354;50.758;6.106;2023-08-24T09:35:20;98907.78;;;25.12;85.19
73151;BME280;61354;50.758;6.106;2023-08-24T09:37:49;98920.59;;;25.17;84.68
73151;BME280;61354;50.758;6.106;2023-08-24T09:40:15;98916.25;;;25.25;84.40
73151;BME280;61354;50.758;6.106;2023-08-24T09:42:41;98910.69;;;25.43;77.57
73151;BME280;61354;50.758;6.106;2023-08-24T09:45:08;98900.25;;;25.40;76.14
73151;BME280;61354;50.758;6.106;2023-08-24T09:47:36;98902.59;;;25.42;76.44
73151;BME280;61354;50.758;6.106;2023-08-24T09:50:03;98905.94;;;25.40;77.46
73151;BME280;61354;50.758;6.106;2023-08-24T09:52:32;98909.69;;;25.37;79.66
73151;BME280;61354;50.758;6.106;2023-08-24T09:55:05;98911.63;;;25.40;79.53
73151;BME280;61354;50.758;6.106;2023-08-24T09:57:39;98913.66;;;25.40;79.95
73151;BME280;61354;50.758;6.106;2023-08-24T10:00:09;98914.44;;;25.40;81.40
73151;BME280;61354;50.758;6.106;2023-08-24T10:02:48;98912.66;;;25.56;79.22
73151;BME280;61354;50.758;6.106;2023-08-24T10:05:24;98919.47;;;25.36;80.37
73151;BME280;61354;50.758;6.106;2023-08-24T10:07:53;98934.44;;;25.27;80.18
73151;BME280;61354;50.758;6.106;2023-08-24T10:10:20;98932.06;;;25.26;80.26
73151;BME280;61354;50.758;6.106;2023-08-24T10:12:47;98941.09;;;25.34;79.42
73151;BME280;61354;50.758;6.106;2023-08-24T10:15:14;98939.63;;;25.29;79.13
73151;BME280;61354;50.758;6.106;2023-08-24T10:17:40;98933.03;;;25.32;78.68
73151;BME280;61354;50.758;6.106;2023-08-24T10:20:07;98938.31;;;25.21;79.78
73151;BME280;61354;50.758;6.106;2023-08-24T10:22:36;98948.78;;;25.24;78.23
73151;BME280;61354;50.758;6.106;2023-08-24T10:25:03;98943.75;;;25.28;78.20
73151;BME280;61354;50.758;6.106;2023-08-24T10:27:29;98947.44;;;25.16;81.48
73151;BME280;61354;50.758;6.106;2023-08-24T10:29:56;98951.91;;;25.04;82.66
73151;BME280;61354;50.758;6.106;2023-08-24T10:32:25;98946.09;;;25.08;79.56
73151;BME280;61354;50.758;6.106;2023-08-24T10:34:51;98946.16;;;24.95;80.07
73151;BME280;61354;50.758;6.106;2023-08-24T10:37:25;98958.88;;;24.90;80.50
73151;BME280;61354;50.758;6.106;2023-08-24T10:39:50;98954.59;;;24.86;79.52
73151;BME280;61354;50.758;6.106;2023-08-24T10:42:16;98955.97;;;24.81;81.96
73151;BME280;61354;50.758;6.106;2023-08-24T10:44:45;98962.69;;;24.74;80.54
73151;BME280;61354;50.758;6.106;2023-08-24T10:47:18;98967.56;;;24.74;80.96
73151;BME280;61354;50.758;6.106;2023-08-24T10:49:56;98972.69;;;24.66;82.35
73151;BME280;61354;50.758;6.106;2023-08-24T10:52:23;98978.50;;;24.63;81.94
73151;BME280;61354;50.758;6.106;2023-08-24T10:54:53;98982.38;;;24.56;83.54
73151;BME280;61354;50.758;6.106;2023-08-24T10:57:24;98988.09;;;24.43;87.26
73151;BME280;61354;50.758;6.106;2023-08-24T11:05:28;99063.84;;;24.04;88.51
73151;BME280;61354;50.758;6.106;2023-08-24T11:08:05;99087.66;;;23.94;89.32
73151;BME280;61354;50.758;6.106;2023-08-24T11:10:45;99098.75;;;23.89;88.58
73151;BME280;61354;50.758;6.106;2023-08-24T11:13:17;99104.78;;;23.62;93.91
73151;BME280;61354;50.758;6.106;2023-08-24T11:15:46;99133.66;;;23.11;100.00
73151;BME280;61354;50.758;6.106;2023-08-24T11:20:49;99142.06;;;22.62;100.00
73151;BME280;61354;50.758;6.106;2023-08-24T11:23:16;99137.72;;;22.21;100.00
73151;BME280;61354;50.758;6.106;2023-08-24T11:25:42;99138.00;;;21.87;100.00
73151;BME280;61354;50.758;6.106;2023-08-24T11:28:08;99140.47;;;21.85;100.00
73151;BME280;61354;50.758;6.106;2023-08-24T11:30:34;99131.09;;;21.68;100.00
73151;BME280;61354;50.758;6.106;2023-08-24T11:33:01;99131.31;;;21.57;100.00
73151;BME280;61354;50.758;6.106;2023-08-24T11:35:35;99105.88;;;21.38;100.00
73151;BME280;61354;50.758;6.106;2023-08-24T11:38:02;99096.25;;;21.31;100.00
73151;BME280;61354;50.758;6.106;2023-08-24T11:40:27;99069.00;;;21.21;100.00
73151;BME280;61354;50.758;6.106;2023-08-24T11:42:54;99063.38;;;21.21;100.00
73151;BME280;61354;50.758;6.106;2023-08-24T11:45:21;99059.81;;;21.17;100.00
73151;BME280;61354;50.758;6.106;2023-08-24T11:47:48;99055.97;;;21.07;100.00
73151;BME280;61354;50.758;6.106;2023-08-24T11:50:14;99024.91;;;21.07;100.00
73151;BME280;61354;50.758;6.106;2023-08-24T11:52:40;99013.69;;;21.04;100.00
73151;BME280;61354;50.758;6.106;2023-08-24T11:55:06;99003.63;;;21.03;100.00
73151;BME280;61354;50.758;6.106;2023-08-24T11:57:35;98978.63;;;21.01;100.00
73151;BME280;61354;50.758;6.106;2023-08-24T12:00:02;98972.63;;;20.99;100.00
73151;BME280;61354;50.758;6.106;2023-08-24T12:02:29;98964.63;;;20.94;100.00
73151;BME280;61354;50.758;6.106;2023-08-24T12:04:56;98965.25;;;21.05;100.00
73151;BME280;61354;50.758;6.106;2023-08-24T12:07:21;98938.03;;;20.95;100.00
73151;BME280;61354;50.758;6.106;2023-08-24T12:09:47;98917.38;;;20.98;100.00
73151;BME280;61354;50.758;6.106;2023-08-24T12:12:18;98921.59;;;21.10;100.00
73151;BME280;61354;50.758;6.106;2023-08-24T12:14:47;98899.97;;;21.03;100.00
73151;BME280;61354;50.758;6.106;2023-08-24T12:17:13;98879.81;;;21.01;100.00
73151;BME280;61354;50.758;6.106;2023-08-24T12:19:42;98862.00;;;21.04;100.00
73151;BME280;61354;50.758;6.106;2023-08-24T12:22:19;98839.34;;;21.08;100.00
73151;BME280;61354;50.758;6.106;2023-08-24T12:24:44;98824.50;;;21.24;100.00
73151;BME280;61354;50.758;6.106;2023-08-24T12:27:17;98796.03;;;21.15;100.00
73151;BME280;61354;50.758;6.106;2023-08-24T12:29:44;98773.09;;;21.13;100.00
73151;BME280;61354;50.758;6.106;2023-08-24T12:32:09;98752.53;;;20.96;100.00
73151;BME280;61354;50.758;6.106;2023-08-24T12:34:35;98742.81;;;20.97;100.00
73151;BME280;61354;50.758;6.106;2023-08-24T12:37:01;98741.84;;;20.87;100.00
73151;BME280;61354;50.758;6.106;2023-08-24T12:39:26;98731.06;;;20.82;100.00
73151;BME280;61354;50.758;6.106;2023-08-24T12:41:52;98740.03;;;20.77;100.00
73151;BME280;61354;50.758;6.106;2023-08-24T12:44:17;98745.75;;;20.73;100.00
73151;BME280;61354;50.758;6.106;2023-08-24T12:46:43;98762.06;;;20.66;100.00
73151;BME280;61354;50.758;6.106;2023-08-24T12:49:09;98774.28;;;20.59;100.00
73151;BME280;61354;50.758;6.106;2023-08-24T12:51:34;98769.50;;;20.56;100.00
73151;BME280;61354;50.758;6.106;2023-08-24T12:54:00;98764.28;;;20.54;100.00
73151;BME280;61354;50.758;6.106;2023-08-24T12:56:25;98752.72;;;20.49;100.00
73151;BME280;61354;50.758;6.106;2023-08-24T12:58:51;98759.56;;;20.48;100.00
73151;BME280;61354;50.758;6.106;2023-08-24T13:01:16;98770.47;;;20.46;100.00
73151;BME280;61354;50.758;6.106;2023-08-24T13:03:42;98799.53;;;20.43;100.00
73151;BME280;61354;50.758;6.106;2023-08-24T13:06:08;98785.50;;;20.39;100.00
73151;BME280;61354;50.758;6.106;2023-08-24T13:08:33;98806.50;;;20.38;100.00
73151;BME280;61354;50.758;6.106;2023-08-24T13:10:59;98806.84;;;20.40;100.00
73151;BME280;61354;50.758;6.106;2023-08-24T13:13:26;98828.53;;;20.43;100.00
73151;BME280;61354;50.758;6.106;2023-08-24T13:15:51;98853.94;;;20.43;100.00
73151;BME280;61354;50.758;6.106;2023-08-24T13:18:17;98882.50;;;20.45;100.00
73151;BME280;61354;50.758;6.106;2023-08-24T13:20:43;98884.59;;;20.41;100.00